Time;durP1;ratioP1;P1;durP2;ratioP2;P2;SDS_P1;SDS_P2;PMS_P1;PMS_P2;Temp;Humidity;BMP_temperature;BMP_pressure;BME280_temperature;BME280_humidity;BME280_pressure;Samples;Min_cycle;Max_cycle;Signal;HPM_P1;HPM_P2
2022/02/22 00:01:05;;;;;;;;;;;;;;;4.78;89.88;98709.50;5054521;28;807;-58
2022/02/22 00:03:32;;;;;;;;;;;;;;;4.77;90.00;98705.16;5054942;28;839;-58
2022/02/22 00:05:59;;;;;;;;;;;;;;;4.79;89.85;98707.53;5054802;28;914;-58
2022/02/22 00:08:25;;;;;;;;;;;;;;;4.82;90.09;98704.81;5054793;28;865;-58
2022/02/22 00:10:52;;;;;;;;;;;;;;;4.86;89.89;98697.34;5054682;28;934;-58
2022/02/22 00:13:19;;;;;;;;;;;;;;;4.96;90.19;98706.75;5054754;28;835;-58
2022/02/22 00:15:45;;;;;;;;;;;;;;;5.01;89.91;98700.88;5054636;28;811;-59
2022/02/22 00:18:12;;;;;;;;;;;;;;;5.05;89.83;98698.91;5054333;28;1902;-58
2022/02/22 00:20:38;;;;;;;;;;;;;;;5.06;90.16;98697.75;5054830;28;923;-58
2022/02/22 00:23:07;;;;;;;;;;;;;;;5.05;90.30;98698.91;5054720;28;855;-58
2022/02/22 00:25:34;;;;;;;;;;;;;;;5.08;90.41;98691.88;5054351;28;863;-58
2022/02/22 00:28:00;;;;;;;;;;;;;;;5.21;90.56;98689.53;5054540;28;886;-58
2022/02/22 00:30:27;;;;;;;;;;;;;;;5.35;90.53;98688.72;5069774;28;823;-58
2022/02/22 00:32:53;;;;;;;;;;;;;;;5.39;90.79;98673.81;5054509;28;862;-58
2022/02/22 00:35:20;;;;;;;;;;;;;;;5.44;90.92;98680.84;5054451;28;918;-58
2022/02/22 00:37:46;;;;;;;;;;;;;;;5.37;90.84;98680.88;5054472;28;1886;-58
2022/02/22 00:40:12;;;;;;;;;;;;;;;5.30;90.94;98682.44;5054518;28;799;-58
2022/02/22 00:42:40;;;;;;;;;;;;;;;5.20;90.95;98677.75;5054987;28;810;-58
2022/02/22 00:45:07;;;;;;;;;;;;;;;5.07;90.86;98660.97;5054278;28;870;-58
2022/02/22 00:47:34;;;;;;;;;;;;;;;4.98;90.71;98671.53;5054282;28;922;-58
2022/02/22 00:50:00;;;;;;;;;;;;;;;4.91;91.05;98675.06;5054320;28;925;-58
2022/02/22 00:52:28;;;;;;;;;;;;;;;4.81;90.75;98675.84;5054342;28;1261;-58
2022/02/22 00:54:54;;;;;;;;;;;;;;;4.70;91.19;98672.31;5054258;28;769;-58
2022/02/22 00:57:21;;;;;;;;;;;;;;;4.53;91.25;98668.41;5053993;28;1945;-58
2022/02/22 00:59:48;;;;;;;;;;;;;;;4.46;92.01;98668.41;5054252;28;811;-58
2022/02/22 01:02:15;;;;;;;;;;;;;;;4.35;92.02;98676.56;5053814;28;847;-58
2022/02/22 01:04:41;;;;;;;;;;;;;;;4.38;92.80;98685.97;5054119;28;775;-58
2022/02/22 01:07:08;;;;;;;;;;;;;;;4.39;92.96;98682.06;5053657;28;906;-58
2022/02/22 01:09:35;;;;;;;;;;;;;;;4.30;93.36;98679.69;5053686;28;788;-58
2022/02/22 01:12:02;;;;;;;;;;;;;;;4.19;93.49;98681.63;5053286;28;827;-58
2022/02/22 01:14:28;;;;;;;;;;;;;;;4.12;94.28;98674.19;5053625;28;883;-58
2022/02/22 01:16:55;;;;;;;;;;;;;;;4.00;94.10;98671.81;5053376;28;1906;-58
2022/02/22 01:19:21;;;;;;;;;;;;;;;4.02;95.33;98675.72;5053488;28;889;-58
2022/02/22 01:21:47;;;;;;;;;;;;;;;4.10;96.03;98665.59;5053466;28;846;-58
2022/02/22 01:24:13;;;;;;;;;;;;;;;4.02;95.03;98666.72;5053257;28;791;-58
2022/02/22 01:26:39;;;;;;;;;;;;;;;3.96;95.33;98654.59;5052249;28;1612;-58
2022/02/22 01:29:06;;;;;;;;;;;;;;;3.85;95.22;98660.03;5053316;28;807;-58
2022/02/22 01:31:32;;;;;;;;;;;;;;;3.80;95.80;98652.22;5053290;28;929;-58
2022/02/22 01:33:59;;;;;;;;;;;;;;;3.86;96.41;98656.13;5053233;28;933;-58
2022/02/22 01:36:26;;;;;;;;;;;;;;;3.85;96.63;98654.56;5053304;28;826;-58
2022/02/22 01:38:53;;;;;;;;;;;;;;;3.80;96.88;98653.00;5053021;28;1890;-58
2022/02/22 01:41:20;;;;;;;;;;;;;;;3.79;96.96;98651.41;5053048;28;961;-58
2022/02/22 01:43:47;;;;;;;;;;;;;;;3.76;96.95;98652.19;5053323;28;807;-58
2022/02/22 01:46:13;;;;;;;;;;;;;;;3.77;97.32;98655.69;5053013;28;859;-58
2022/02/22 01:48:40;;;;;;;;;;;;;;;3.80;97.55;98642.06;5052861;28;928;-58
2022/02/22 01:51:07;;;;;;;;;;;;;;;3.82;97.77;98644.38;5052907;28;827;-58
2022/02/22 01:53:34;;;;;;;;;;;;;;;3.81;97.68;98640.09;5052876;28;823;-58
2022/02/22 01:56:01;;;;;;;;;;;;;;;3.71;97.48;98635.38;5053031;28;859;-58
2022/02/22 01:58:27;;;;;;;;;;;;;;;3.57;97.25;98641.56;5052672;28;1949;-58
2022/02/22 02:00:54;;;;;;;;;;;;;;;3.49;97.78;98629.81;5052700;28;870;-58
2022/02/22 02:03:20;;;;;;;;;;;;;;;3.57;98.18;98633.38;5052670;28;828;-58
2022/02/22 02:05:46;;;;;;;;;;;;;;;3.51;98.04;98630.22;5052625;28;889;-58
2022/02/22 02:08:13;;;;;;;;;;;;;;;3.54;98.68;98623.19;5052537;28;867;-58
2022/02/22 02:10:39;;;;;;;;;;;;;;;3.59;98.72;98625.56;5052559;28;863;-58
2022/02/22 02:13:06;;;;;;;;;;;;;;;3.67;99.03;98622.50;5052480;28;870;-58
2022/02/22 02:15:32;;;;;;;;;;;;;;;3.77;98.90;98620.94;5052416;28;884;-58
2022/02/22 02:17:59;;;;;;;;;;;;;;;3.84;98.70;98625.66;5051915;28;1901;-58
2022/02/22 02:20:26;;;;;;;;;;;;;;;3.94;99.01;98619.44;5052396;28;902;-58
2022/02/22 02:22:52;;;;;;;;;;;;;;;4.00;98.84;98628.06;5051509;28;811;-58
2022/02/22 02:25:19;;;;;;;;;;;;;;;3.94;97.88;98624.13;5052324;28;823;-58
2022/02/22 02:27:46;;;;;;;;;;;;;;;3.93;98.17;98625.31;5052191;28;898;-58
2022/02/22 02:30:12;;;;;;;;;;;;;;;3.87;97.96;98630.34;5052311;28;914;-58
2022/02/22 02:32:39;;;;;;;;;;;;;;;3.86;98.20;98626.03;5052150;28;839;-58
2022/02/22 02:35:06;;;;;;;;;;;;;;;3.83;98.07;98622.13;5052116;28;822;-58
2022/02/22 02:37:36;;;;;;;;;;;;;;;3.94;98.73;98630.38;5051992;28;1886;-58
2022/02/22 02:40:06;;;;;;;;;;;;;;;4.07;99.01;98625.31;5051926;28;933;-58
2022/02/22 02:42:32;;;;;;;;;;;;;;;4.27;99.30;98628.50;5051924;28;891;-58
2022/02/22 02:44:59;;;;;;;;;;;;;;;4.60;99.15;98621.88;5051904;28;871;-58
2022/02/22 02:47:26;;;;;;;;;;;;;;;4.90;99.31;98617.94;5052077;28;941;-58
2022/02/22 02:49:52;;;;;;;;;;;;;;;5.16;98.93;98622.19;5051766;28;875;-58
2022/02/22 02:52:19;;;;;;;;;;;;;;;5.37;98.20;98626.06;5051679;28;875;-58
2022/02/22 02:54:45;;;;;;;;;;;;;;;5.50;97.72;98624.47;5051787;28;843;-58
2022/02/22 02:57:13;;;;;;;;;;;;;;;5.56;97.78;98622.09;5051675;28;1976;-58
2022/02/22 02:59:39;;;;;;;;;;;;;;;5.63;97.34;98620.13;5051589;28;962;-58
2022/02/22 03:02:06;;;;;;;;;;;;;;;5.73;97.33;98616.53;5051687;28;831;-58
2022/02/22 03:04:32;;;;;;;;;;;;;;;5.78;97.00;98620.03;5051696;28;879;-58
2022/02/22 03:06:59;;;;;;;;;;;;;;;5.81;97.29;98633.75;5051486;28;942;-58
2022/02/22 03:09:25;;;;;;;;;;;;;;;5.84;96.65;98627.44;5051531;28;870;-58
2022/02/22 03:11:52;;;;;;;;;;;;;;;5.85;96.29;98631.78;5050239;28;698;-58
2022/02/22 03:14:19;;;;;;;;;;;;;;;5.89;96.00;98629.03;5051714;28;847;-58
2022/02/22 03:16:45;;;;;;;;;;;;;;;5.90;95.58;98633.31;5051193;28;1367;-58
2022/02/22 03:19:13;;;;;;;;;;;;;;;5.90;95.73;98623.13;5051393;28;1910;-58
2022/02/22 03:21:43;;;;;;;;;;;;;;;5.91;94.88;98621.94;5051234;28;918;-58
2022/02/22 03:24:10;;;;;;;;;;;;;;;5.93;94.20;98622.34;5051377;28;843;-58
2022/02/22 03:26:36;;;;;;;;;;;;;;;5.94;94.38;98625.84;5051356;28;926;-58
2022/02/22 03:29:03;;;;;;;;;;;;;;;5.97;94.83;98630.56;5051300;28;796;-58
2022/02/22 03:31:30;;;;;;;;;;;;;;;5.96;94.07;98629.00;5051336;28;839;-58
2022/02/22 03:33:57;;;;;;;;;;;;;;;5.94;93.73;98631.34;5052762;28;811;-58
2022/02/22 03:36:25;;;;;;;;;;;;;;;5.87;93.44;98621.19;5055471;28;836;-58
2022/02/22 03:38:52;;;;;;;;;;;;;;;5.83;93.68;98625.13;5055290;28;1889;-58
2022/02/22 03:41:18;;;;;;;;;;;;;;;5.76;93.75;98617.72;5055630;28;807;-58
2022/02/22 03:43:45;;;;;;;;;;;;;;;5.78;93.73;98612.59;5055331;28;812;-58
2022/02/22 03:46:11;;;;;;;;;;;;;;;5.86;93.25;98616.88;5055133;28;934;-58
2022/02/22 03:48:38;;;;;;;;;;;;;;;5.95;93.65;98618.44;5055186;28;891;-58
2022/02/22 03:51:05;;;;;;;;;;;;;;;6.02;93.59;98615.66;5055140;28;811;-58
2022/02/22 03:53:32;;;;;;;;;;;;;;;6.05;93.43;98615.63;5053782;28;697;-58
2022/02/22 03:55:59;;;;;;;;;;;;;;;6.10;93.03;98614.41;5055422;28;842;-58
2022/02/22 03:58:25;;;;;;;;;;;;;;;6.15;92.19;98614.00;5054948;28;1953;-58
2022/02/22 04:00:52;;;;;;;;;;;;;;;6.16;92.47;98617.53;5054995;28;816;-58
2022/02/22 04:03:18;;;;;;;;;;;;;;;6.16;91.99;98615.56;5054964;28;823;-58
2022/02/22 04:05:46;;;;;;;;;;;;;;;6.17;92.25;98611.66;5054867;28;843;-58
2022/02/22 04:08:13;;;;;;;;;;;;;;;6.21;92.59;98614.34;5054857;28;815;-58
2022/02/22 04:10:39;;;;;;;;;;;;;;;6.17;92.19;98619.09;5055054;28;846;-58
2022/02/22 04:13:05;;;;;;;;;;;;;;;6.10;91.62;98612.47;5054666;28;932;-58
2022/02/22 04:15:32;;;;;;;;;;;;;;;6.09;91.87;98616.38;5054872;28;851;-58
2022/02/22 04:17:58;;;;;;;;;;;;;;;6.05;91.34;98610.13;5054372;28;1980;-58
2022/02/22 04:20:24;;;;;;;;;;;;;;;6.07;91.15;98615.22;5054427;28;911;-59
2022/02/22 04:22:51;;;;;;;;;;;;;;;6.08;92.00;98614.84;5054696;28;819;-58
2022/02/22 04:25:18;;;;;;;;;;;;;;;6.06;91.54;98614.47;5054476;28;930;-58
2022/02/22 04:27:44;;;;;;;;;;;;;;;6.00;91.22;98621.53;5054758;28;888;-58
2022/02/22 04:30:11;;;;;;;;;;;;;;;6.02;91.50;98618.41;5054658;28;823;-58
2022/02/22 04:32:37;;;;;;;;;;;;;;;6.07;91.72;98618.75;5054590;28;901;-58
2022/02/22 04:35:04;;;;;;;;;;;;;;;6.06;91.45;98624.63;5054650;28;953;-58
2022/02/22 04:37:31;;;;;;;;;;;;;;;6.09;92.54;98626.59;5054550;28;1944;-58
2022/02/22 04:39:58;;;;;;;;;;;;;;;6.07;92.21;98621.50;5054784;28;830;-58
2022/02/22 04:42:24;;;;;;;;;;;;;;;6.04;91.67;98629.72;5054303;28;873;-58
2022/02/22 04:44:50;;;;;;;;;;;;;;;6.04;91.72;98618.75;5054134;28;844;-58
2022/02/22 04:47:17;;;;;;;;;;;;;;;6.09;92.15;98623.84;5053718;28;886;-58
2022/02/22 04:49:44;;;;;;;;;;;;;;;6.17;92.01;98622.63;5052760;28;1799;-58
2022/02/22 04:52:11;;;;;;;;;;;;;;;6.21;92.16;98626.13;5054031;28;910;-58
2022/02/22 04:54:38;;;;;;;;;;;;;;;6.25;92.15;98615.91;5054019;28;874;-58
2022/02/22 04:57:05;;;;;;;;;;;;;;;6.38;93.07;98616.22;5053842;28;1945;-58
2022/02/22 04:59:31;;;;;;;;;;;;;;;6.58;93.00;98621.16;5053817;28;895;-58
2022/02/22 05:01:57;;;;;;;;;;;;;;;6.76;92.84;98627.28;5053927;28;830;-58
2022/02/22 05:04:24;;;;;;;;;;;;;;;6.89;92.04;98627.56;5069270;28;882;-58
2022/02/22 05:06:50;;;;;;;;;;;;;;;6.98;92.00;98633.38;5053796;28;889;-58
2022/02/22 05:09:17;;;;;;;;;;;;;;;7.04;91.44;98639.19;5053874;28;819;-58
2022/02/22 05:11:44;;;;;;;;;;;;;;;7.06;91.73;98640.38;5053620;28;914;-58
2022/02/22 05:14:10;;;;;;;;;;;;;;;6.86;90.28;98650.34;5053679;28;855;-58
2022/02/22 05:16:39;;;;;;;;;;;;;;;6.53;90.24;98656.09;5053419;28;1201;-58
2022/02/22 05:19:05;;;;;;;;;;;;;;;6.16;90.40;98658.69;5053288;28;1981;-58
2022/02/22 05:21:34;;;;;;;;;;;;;;;5.86;89.73;98660.75;5053443;28;895;-58
2022/02/22 05:24:02;;;;;;;;;;;;;;;5.55;90.16;98661.63;5053453;28;917;-58
2022/02/22 05:26:28;;;;;;;;;;;;;;;5.37;91.49;98665.22;5053313;28;932;-58
2022/02/22 05:28:54;;;;;;;;;;;;;;;5.37;92.41;98664.44;5053337;28;937;-58
2022/02/22 05:31:21;;;;;;;;;;;;;;;5.50;93.14;98660.09;5053287;28;854;-58
2022/02/22 05:33:48;;;;;;;;;;;;;;;5.76;92.98;98663.53;5053250;28;919;-58
2022/02/22 05:36:14;;;;;;;;;;;;;;;6.03;92.77;98664.63;5053150;28;858;-58
2022/02/22 05:38:40;;;;;;;;;;;;;;;6.26;92.47;98655.88;5053382;28;1894;-58
2022/02/22 05:41:06;;;;;;;;;;;;;;;6.47;93.00;98654.19;5053170;28;874;-58
2022/02/22 05:43:32;;;;;;;;;;;;;;;6.72;92.43;98654.78;5053082;28;835;-58
2022/02/22 05:45:59;;;;;;;;;;;;;;;7.05;92.07;98655.28;5053011;28;830;-58
2022/02/22 05:48:26;;;;;;;;;;;;;;;7.31;91.53;98656.59;5051771;28;1672;-58
2022/02/22 05:50:52;;;;;;;;;;;;;;;7.78;90.29;98656.09;5052853;28;826;-58
2022/02/22 05:53:19;;;;;;;;;;;;;;;8.27;90.04;98661.38;5053235;28;815;-58
2022/02/22 05:55:47;;;;;;;;;;;;;;;8.87;89.04;98662.44;5052724;28;895;-58
2022/02/22 05:58:14;;;;;;;;;;;;;;;8.90;86.29;98669.91;5051622;28;1893;-58
2022/02/22 06:00:41;;;;;;;;;;;;;;;8.42;86.98;98662.75;5052672;28;982;-58
2022/02/22 06:03:07;;;;;;;;;;;;;;;8.01;87.44;98674.69;5052668;28;870;-58
2022/02/22 06:05:34;;;;;;;;;;;;;;;7.39;86.68;98676.56;5052625;28;863;-58
2022/02/22 06:08:00;;;;;;;;;;;;;;;6.76;85.91;98671.22;5052889;28;816;-58
2022/02/22 06:10:28;;;;;;;;;;;;;;;6.26;86.70;98675.09;5052603;28;887;-58
2022/02/22 06:12:55;;;;;;;;;;;;;;;6.02;88.20;98676.00;5052493;28;1212;-58
2022/02/22 06:15:22;;;;;;;;;;;;;;;6.02;89.23;98681.50;5052537;28;807;-58
2022/02/22 06:17:49;;;;;;;;;;;;;;;6.13;89.85;98665.75;5052026;28;1910;-58
2022/02/22 06:20:16;;;;;;;;;;;;;;;6.51;91.38;98661.22;5052432;28;915;-58
2022/02/22 06:22:42;;;;;;;;;;;;;;;7.28;91.68;98662.94;5052349;28;803;-58
2022/02/22 06:25:09;;;;;;;;;;;;;;;8.41;89.67;98658.44;5052184;28;917;-58
2022/02/22 06:27:45;;;;;;;;;;;;;;;9.71;86.67;98657.03;5052270;28;811;-58
2022/02/22 06:30:12;;;;;;;;;;;;;;;11.04;84.19;98661.19;5052327;28;861;-58
2022/02/22 06:32:38;;;;;;;;;;;;;;;12.24;81.17;98656.75;5053023;28;767;-58
2022/02/22 06:35:04;;;;;;;;;;;;;;;13.24;78.51;98658.34;5052085;28;910;-58
2022/02/22 06:37:30;;;;;;;;;;;;;;;14.01;75.21;98650.47;5052071;28;1942;-58
2022/02/22 06:39:59;;;;;;;;;;;;;;;14.58;72.28;98652.34;5052001;28;788;-58
2022/02/22 06:42:25;;;;;;;;;;;;;;;14.87;70.21;98646.38;5051947;28;851;-58
2022/02/22 06:44:52;;;;;;;;;;;;;;;15.17;67.86;98643.97;5051895;28;936;-58
2022/02/22 06:47:19;;;;;;;;;;;;;;;15.49;66.08;98650.94;5051734;28;930;-58
2022/02/22 06:49:45;;;;;;;;;;;;;;;15.59;63.29;98655.28;5051750;28;848;-58
2022/02/22 06:52:12;;;;;;;;;;;;;;;15.39;62.53;98652.97;5051795;28;913;-58
2022/02/22 06:54:38;;;;;;;;;;;;;;;15.05;63.56;98654.78;5051670;28;910;-58
2022/02/22 06:57:05;;;;;;;;;;;;;;;14.85;63.82;98658.00;5051731;28;1889;-58
2022/02/22 06:59:32;;;;;;;;;;;;;;;15.02;62.54;98666.84;5051683;28;791;-58
2022/02/22 07:01:59;;;;;;;;;;;;;;;15.36;62.40;98664.25;5051695;28;1132;-58
2022/02/22 07:04:25;;;;;;;;;;;;;;;15.69;60.98;98667.19;5051555;28;910;-58
2022/02/22 07:06:52;;;;;;;;;;;;;;;16.21;59.73;98658.94;5051618;28;927;-58
2022/02/22 07:09:19;;;;;;;;;;;;;;;17.12;57.18;98668.94;5051192;28;942;-58
2022/02/22 07:11:45;;;;;;;;;;;;;;;17.88;54.49;98668.72;5051597;28;784;-58
2022/02/22 07:14:11;;;;;;;;;;;;;;;17.94;54.21;98661.22;5051459;28;899;-58
2022/02/22 07:16:38;;;;;;;;;;;;;;;17.03;55.38;98665.47;5051052;28;1262;-58
2022/02/22 07:19:06;;;;;;;;;;;;;;;16.88;55.99;98666.16;5051311;28;1995;-58
2022/02/22 07:21:32;;;;;;;;;;;;;;;16.86;56.21;98656.72;5051339;28;891;-58
2022/02/22 07:23:58;;;;;;;;;;;;;;;16.45;55.74;98661.81;5051654;28;823;-58
2022/02/22 07:26:25;;;;;;;;;;;;;;;15.80;57.47;98661.97;5051316;28;881;-59
2022/02/22 07:28:51;;;;;;;;;;;;;;;15.58;58.84;98658.56;5051292;28;951;-58
2022/02/22 07:31:18;;;;;;;;;;;;;;;15.42;58.64;98659.63;5051412;28;930;-58
2022/02/22 07:33:44;;;;;;;;;;;;;;;15.23;60.55;98662.38;5051289;28;823;-58
2022/02/22 07:36:11;;;;;;;;;;;;;;;14.97;61.87;98652.75;5051305;28;878;-58
2022/02/22 07:38:38;;;;;;;;;;;;;;;14.49;62.75;98661.38;5051156;28;1910;-58
2022/02/22 07:41:04;;;;;;;;;;;;;;;14.26;64.61;98657.88;5049673;28;850;-59
2022/02/22 07:43:31;;;;;;;;;;;;;;;14.13;65.98;98656.41;5051381;28;899;-59
2022/02/22 07:45:58;;;;;;;;;;;;;;;14.33;65.68;98651.25;5051411;28;799;-58
2022/02/22 07:48:24;;;;;;;;;;;;;;;14.48;65.18;98645.91;5051200;28;1041;-59
2022/02/22 07:50:50;;;;;;;;;;;;;;;14.31;66.03;98639.81;5051297;28;1224;-58
2022/02/22 07:53:16;;;;;;;;;;;;;;;14.05;65.80;98648.34;5051271;28;857;-58
2022/02/22 07:55:42;;;;;;;;;;;;;;;13.68;67.04;98648.09;5051340;28;853;-59
2022/02/22 07:58:10;;;;;;;;;;;;;;;13.57;68.03;98661.59;5051196;28;1949;-59
2022/02/22 08:00:37;;;;;;;;;;;;;;;13.50;68.81;98664.59;5051268;28;871;-59
2022/02/22 08:03:03;;;;;;;;;;;;;;;13.51;69.10;98655.06;5051101;28;856;-59
2022/02/22 08:05:30;;;;;;;;;;;;;;;13.64;68.75;98666.13;5051045;28;846;-59
2022/02/22 08:07:57;;;;;;;;;;;;;;;13.76;68.41;98672.81;5051024;28;878;-59
2022/02/22 08:10:24;;;;;;;;;;;;;;;13.88;68.66;98675.53;5050943;28;882;-59
2022/02/22 08:12:51;;;;;;;;;;;;;;;13.99;68.52;98677.94;5050976;28;949;-59
2022/02/22 08:15:17;;;;;;;;;;;;;;;13.99;68.15;98679.94;5050909;28;929;-59
2022/02/22 08:17:44;;;;;;;;;;;;;;;14.12;68.25;98688.19;5050518;28;1988;-58
2022/02/22 08:20:11;;;;;;;;;;;;;;;13.60;69.09;98696.00;5051000;28;941;-59
2022/02/22 08:22:38;;;;;;;;;;;;;;;13.38;70.33;98691.19;5054864;28;850;-59
2022/02/22 08:25:04;;;;;;;;;;;;;;;13.51;70.47;98691.16;5054749;28;866;-59
2022/02/22 08:27:31;;;;;;;;;;;;;;;13.46;70.40;98702.81;5054712;28;759;-59
2022/02/22 08:29:57;;;;;;;;;;;;;;;13.28;71.44;98701.41;5054465;28;899;-59
2022/02/22 08:32:24;;;;;;;;;;;;;;;13.16;71.60;98710.50;5054483;28;831;-59
2022/02/22 08:34:51;;;;;;;;;;;;;;;13.22;71.62;98713.50;5054385;28;863;-59
2022/02/22 08:37:17;;;;;;;;;;;;;;;13.39;71.21;98712.16;5053713;28;1977;-59
2022/02/22 08:39:43;;;;;;;;;;;;;;;13.39;71.20;98716.94;5054811;28;819;-59
2022/02/22 08:42:10;;;;;;;;;;;;;;;13.33;71.98;98719.50;5054821;28;1281;-58
2022/02/22 08:44:36;;;;;;;;;;;;;;;13.15;72.63;98714.53;5054621;28;819;-59
2022/02/22 08:47:05;;;;;;;;;;;;;;;13.10;72.90;98720.66;5054303;28;1249;-57
2022/02/22 08:49:33;;;;;;;;;;;;;;;13.11;73.47;98711.09;5053021;28;1227;-59
2022/02/22 08:51:59;;;;;;;;;;;;;;;13.28;73.27;98715.28;5054325;28;902;-60
2022/02/22 08:54:26;;;;;;;;;;;;;;;13.37;72.96;98714.59;5054333;28;840;-59
2022/02/22 08:56:52;;;;;;;;;;;;;;;13.22;73.61;98719.06;5052979;28;895;-59
2022/02/22 08:59:19;;;;;;;;;;;;;;;13.28;73.75;98715.28;5054001;28;1949;-59
2022/02/22 09:01:45;;;;;;;;;;;;;;;13.95;73.39;98718.94;5054391;28;870;-59
2022/02/22 09:04:12;;;;;;;;;;;;;;;14.78;70.10;98710.34;5053876;28;866;-59
2022/02/22 09:06:38;;;;;;;;;;;;;;;14.73;69.24;98711.72;5054088;28;815;-58
2022/02/22 09:09:05;;;;;;;;;;;;;;;14.18;70.30;98719.72;5053268;28;822;-58
2022/02/22 09:11:31;;;;;;;;;;;;;;;13.80;71.54;98710.34;5069260;28;941;-58
2022/02/22 09:13:57;;;;;;;;;;;;;;;13.60;72.53;98710.66;5053353;28;866;-58
2022/02/22 09:16:24;;;;;;;;;;;;;;;13.75;72.50;98716.50;5053321;28;977;-58
2022/02/22 09:18:50;;;;;;;;;;;;;;;14.00;71.96;98709.28;5053351;28;1969;-58
2022/02/22 09:21:16;;;;;;;;;;;;;;;14.06;71.52;98708.25;5053493;28;875;-58
2022/02/22 09:23:43;;;;;;;;;;;;;;;14.17;71.22;98704.31;5053508;28;803;-59
2022/02/22 09:26:10;;;;;;;;;;;;;;;14.30;70.77;98707.78;5053366;28;955;-58
2022/02/22 09:28:37;;;;;;;;;;;;;;;14.45;70.13;98714.34;5053384;28;961;-58
2022/02/22 09:31:03;;;;;;;;;;;;;;;14.72;69.25;98712.94;5053009;28;913;-59
2022/02/22 09:33:30;;;;;;;;;;;;;;;15.09;68.13;98715.84;5053462;28;846;-58
2022/02/22 09:35:57;;;;;;;;;;;;;;;15.31;67.45;98718.53;5053406;28;863;-59
2022/02/22 09:38:23;;;;;;;;;;;;;;;15.46;67.14;98719.47;5053204;28;1941;-58
2022/02/22 09:40:49;;;;;;;;;;;;;;;15.77;66.54;98709.47;5052033;28;2453;-58
2022/02/22 09:43:17;;;;;;;;;;;;;;;16.07;65.92;98705.75;5053299;28;937;-59
2022/02/22 09:45:44;;;;;;;;;;;;;;;16.02;65.34;98706.34;5053088;28;942;-59
2022/02/22 09:48:10;;;;;;;;;;;;;;;16.09;64.95;98702.50;5052966;28;905;-58
2022/02/22 09:50:37;;;;;;;;;;;;;;;16.03;64.58;98699.56;5053044;28;803;-58
2022/02/22 09:53:04;;;;;;;;;;;;;;;16.12;64.59;98690.41;5051621;28;869;-58
2022/02/22 09:55:31;;;;;;;;;;;;;;;16.12;64.69;98688.38;5052816;28;854;-58
2022/02/22 09:57:58;;;;;;;;;;;;;;;15.91;64.77;98686.56;5052805;28;1863;-58
2022/02/22 10:00:31;;;;;;;;;;;;;;;16.08;64.76;98687.75;5052758;28;834;-58
2022/02/22 10:02:58;;;;;;;;;;;;;;;16.33;64.31;98686.63;5052699;28;942;-58
2022/02/22 10:05:25;;;;;;;;;;;;;;;16.21;63.84;98692.38;5052652;28;958;-58
2022/02/22 10:07:56;;;;;;;;;;;;;;;16.13;64.19;98689.94;5051411;28;815;-58
2022/02/22 10:10:33;;;;;;;;;;;;;;;16.02;64.26;98680.50;5052596;28;1107;-58
2022/02/22 10:13:00;;;;;;;;;;;;;;;16.18;64.37;98687.75;5052557;28;866;-59
2022/02/22 10:15:27;;;;;;;;;;;;;;;16.24;64.23;98678.31;5052431;28;866;-58
2022/02/22 10:17:53;;;;;;;;;;;;;;;16.35;63.67;98679.81;5052190;28;1983;-58
2022/02/22 10:20:20;;;;;;;;;;;;;;;16.52;63.41;98681.00;5052424;28;795;-58
2022/02/22 10:22:50;;;;;;;;;;;;;;;16.74;63.01;98684.31;5052310;28;959;-58
2022/02/22 10:25:18;;;;;;;;;;;;;;;17.10;62.24;98679.06;5052208;28;1106;-58
2022/02/22 10:27:52;;;;;;;;;;;;;;;17.40;60.99;98687.53;5052147;28;934;-58
2022/02/22 10:30:28;;;;;;;;;;;;;;;17.41;60.59;98684.28;5052727;28;869;-58
2022/02/22 10:32:55;;;;;;;;;;;;;;;17.38;60.20;98681.66;5052211;28;945;-59
2022/02/22 10:35:32;;;;;;;;;;;;;;;17.66;59.76;98669.00;5052141;28;823;-58
2022/02/22 10:38:00;;;;;;;;;;;;;;;17.78;59.08;98674.84;5051987;28;1941;-58
2022/02/22 10:40:27;;;;;;;;;;;;;;;17.87;58.64;98669.19;5052043;28;1321;-58
2022/02/22 10:42:54;;;;;;;;;;;;;;;18.02;58.34;98667.16;5051723;28;787;-58
2022/02/22 10:45:20;;;;;;;;;;;;;;;18.10;58.22;98667.56;5051587;28;1032;-58
2022/02/22 10:47:46;;;;;;;;;;;;;;;18.15;57.98;98673.25;5051878;28;929;-59
2022/02/22 10:50:13;;;;;;;;;;;;;;;18.15;57.84;98672.47;5051832;28;895;-59
2022/02/22 10:52:39;;;;;;;;;;;;;;;18.07;57.63;98674.91;5051883;28;835;-58
2022/02/22 10:55:06;;;;;;;;;;;;;;;17.88;58.24;98681.91;5051786;28;925;-59
2022/02/22 10:57:32;;;;;;;;;;;;;;;17.90;58.34;98685.78;5051612;28;1943;-58
2022/02/22 10:59:59;;;;;;;;;;;;;;;17.80;58.67;98675.13;5051646;28;934;-58
2022/02/22 11:02:25;;;;;;;;;;;;;;;17.67;58.97;98673.38;5051654;28;869;-58
2022/02/22 11:04:55;;;;;;;;;;;;;;;17.82;58.87;98681.00;5051531;28;962;-59
2022/02/22 11:07:23;;;;;;;;;;;;;;;17.84;59.03;98670.16;5066733;28;891;-59
2022/02/22 11:09:49;;;;;;;;;;;;;;;17.68;59.71;98674.13;5050256;28;852;-59
2022/02/22 11:12:24;;;;;;;;;;;;;;;17.72;60.61;98664.31;5051485;28;879;-58
2022/02/22 11:14:51;;;;;;;;;;;;;;;17.75;60.17;98674.53;5051353;28;961;-58
2022/02/22 11:17:19;;;;;;;;;;;;;;;17.72;60.21;98669.13;5051213;28;1977;-59
2022/02/22 11:19:46;;;;;;;;;;;;;;;17.59;60.22;98669.41;5051430;28;842;-59
2022/02/22 11:22:13;;;;;;;;;;;;;;;17.18;61.09;98671.88;5051433;28;815;-59
2022/02/22 11:24:53;;;;;;;;;;;;;;;17.34;61.94;98668.63;5051266;28;851;-58
2022/02/22 11:27:31;;;;;;;;;;;;;;;18.34;59.65;98664.66;5051633;28;866;-58
2022/02/22 11:30:07;;;;;;;;;;;;;;;19.13;56.81;98663.06;5051357;28;910;-59
2022/02/22 11:32:34;;;;;;;;;;;;;;;19.01;56.51;98664.16;5051221;28;855;-59
2022/02/22 11:35:17;;;;;;;;;;;;;;;18.44;57.18;98663.31;5051384;28;898;-59
2022/02/22 11:37:46;;;;;;;;;;;;;;;17.76;58.56;98662.09;5066707;28;1890;-59
2022/02/22 11:40:26;;;;;;;;;;;;;;;17.22;60.13;98663.28;5051215;28;918;-59
2022/02/22 11:43:03;;;;;;;;;;;;;;;16.81;61.43;98666.47;5051106;28;910;-59
2022/02/22 11:45:30;;;;;;;;;;;;;;;16.70;61.83;98666.97;5049975;28;1334;-58
2022/02/22 11:48:15;;;;;;;;;;;;;;;16.60;62.23;98654.31;5051195;28;897;-59
2022/02/22 11:50:43;;;;;;;;;;;;;;;16.41;63.01;98650.03;5051264;28;830;-59
2022/02/22 11:53:12;;;;;;;;;;;;;;;16.39;62.80;98653.31;5051156;28;879;-58
2022/02/22 11:55:38;;;;;;;;;;;;;;;16.51;62.92;98654.34;5053690;28;968;-59
2022/02/22 11:58:12;;;;;;;;;;;;;;;16.70;62.25;98646.66;5055015;28;1910;-59
2022/02/22 12:00:40;;;;;;;;;;;;;;;16.82;62.18;98650.53;5055130;28;850;-59
2022/02/22 12:03:07;;;;;;;;;;;;;;;16.88;62.08;98643.81;5054945;28;959;-59
2022/02/22 12:05:38;;;;;;;;;;;;;;;16.86;61.78;98642.75;5054906;28;905;-59
2022/02/22 12:08:05;;;;;;;;;;;;;;;16.83;61.79;98647.25;5054886;28;902;-59
2022/02/22 12:10:33;;;;;;;;;;;;;;;16.78;62.29;98650.66;5054862;28;870;-59
2022/02/22 12:13:10;;;;;;;;;;;;;;;16.93;62.48;98657.13;5054740;28;874;-59
2022/02/22 12:15:36;;;;;;;;;;;;;;;16.97;62.19;98658.97;5054729;28;968;-59
2022/02/22 12:18:04;;;;;;;;;;;;;;;17.00;61.76;98667.16;5054377;28;1983;-58
2022/02/22 12:20:31;;;;;;;;;;;;;;;17.11;61.59;98661.84;5054909;28;940;-59
2022/02/22 12:22:58;;;;;;;;;;;;;;;17.38;61.00;98667.69;5054657;28;886;-59
2022/02/22 12:25:25;;;;;;;;;;;;;;;17.52;60.22;98661.38;5054485;28;866;-59
2022/02/22 12:28:02;;;;;;;;;;;;;;;17.63;60.32;98672.00;5054500;28;867;-59
2022/02/22 12:30:33;;;;;;;;;;;;;;;17.70;59.40;98668.84;5054755;28;818;-58
2022/02/22 12:32:58;;;;;;;;;;;;;;;17.50;59.71;98656.28;5054468;28;827;-57
2022/02/22 12:35:34;;;;;;;;;;;;;;;17.29;59.63;98651.78;5054348;28;940;-59
2022/02/22 12:38:01;;;;;;;;;;;;;;;16.86;60.45;98660.25;5054216;28;1870;-59
2022/02/22 12:40:32;;;;;;;;;;;;;;;16.53;60.85;98658.19;5054296;28;969;-59
2022/02/22 12:43:04;;;;;;;;;;;;;;;16.39;61.46;98656.09;5054351;28;911;-59
2022/02/22 12:45:43;;;;;;;;;;;;;;;16.33;61.85;98652.41;5069447;28;941;-59
2022/02/22 12:48:10;;;;;;;;;;;;;;;16.36;60.45;98651.44;5054120;28;847;-59
2022/02/22 12:50:36;;;;;;;;;;;;;;;16.31;60.33;98650.06;5054093;28;863;-59
2022/02/22 12:53:02;;;;;;;;;;;;;;;16.51;59.86;98654.34;5054040;28;1127;-59
2022/02/22 12:55:29;;;;;;;;;;;;;;;16.83;59.35;98668.81;5053935;28;945;-59
2022/02/22 12:58:06;;;;;;;;;;;;;;;17.17;58.82;98675.91;5053889;28;1886;-59
2022/02/22 13:00:33;;;;;;;;;;;;;;;17.59;57.88;98668.63;5054208;28;853;-59
2022/02/22 13:03:10;;;;;;;;;;;;;;;17.80;57.42;98677.94;5053903;28;870;-59
2022/02/22 13:05:40;;;;;;;;;;;;;;;17.92;56.91;98671.31;5054142;28;1446;-59
2022/02/22 13:08:08;;;;;;;;;;;;;;;17.75;56.99;98673.75;5053175;28;846;-59
2022/02/22 13:10:41;;;;;;;;;;;;;;;17.51;57.50;98673.81;5053691;28;918;-59